Time;durP1;ratioP1;P1;durP2;ratioP2;P2;SDS_P1;SDS_P2;PMS_P1;PMS_P2;Temp;Humidity;BMP_temperature;BMP_pressure;BME280_temperature;BME280_humidity;BME280_pressure;Samples;Min_cycle;Max_cycle;Signal;HPM_P1;HPM_P2
2022/08/09 00:01:57;;;;;;;;;;;18.30;68.00;;;;;;5012586;28;20303;-87
2022/08/09 00:04:22;;;;;;;;;;;18.20;68.30;;;;;;5010680;28;19917;-84
2022/08/09 00:06:48;;;;;;;;;;;18.20;68.10;;;;;;5036479;28;19920;-85
2022/08/09 00:09:14;;;;;;;;;;;18.10;68.40;;;;;;5066076;28;19917;-86
2022/08/09 00:11:40;;;;;;;;;;;18.20;68.20;;;;;;5049055;28;19920;-87
2022/08/09 00:14:05;;;;;;;;;;;18.10;68.50;;;;;;5044682;28;19916;-86
2022/08/09 00:16:31;;;;;;;;;;;18.10;68.50;;;;;;5044424;28;19990;-86
2022/08/09 00:18:59;;;;;;;;;;;18.20;68.20;;;;;;5052740;28;20003;-86
2022/08/09 00:21:24;;;;;;;;;;;18.20;68.30;;;;;;5057610;28;20403;-86
2022/08/09 00:23:50;;;;;;;;;;;18.20;68.00;;;;;;5064251;28;19958;-87
2022/08/09 00:26:15;;;;;;;;;;;18.10;69.10;;;;;;5050374;28;19912;-87
2022/08/09 00:28:41;;;;;;;;;;;18.10;69.50;;;;;;4665353;22;19948;-84
2022/08/09 00:31:06;;;;;;;;;;;18.00;69.80;;;;;;5045368;28;20015;-84
2022/08/09 00:33:34;;;;;;;;;;;18.00;69.50;;;;;;5044592;28;19913;-84
2022/08/09 00:36:00;;;;;;;;;;;18.00;70.20;;;;;;5043619;28;19982;-83
2022/08/09 00:38:38;;;;;;;;;;;18.00;69.50;;;;;;5032172;28;20402;-84
2022/08/09 00:41:21;;;;;;;;;;;17.90;69.80;;;;;;5054013;28;19924;-83
2022/08/09 00:44:01;;;;;;;;;;;17.80;70.10;;;;;;5034055;28;19917;-84
2022/08/09 00:46:33;;;;;;;;;;;17.80;70.10;;;;;;5029604;28;19925;-84
2022/08/09 00:48:59;;;;;;;;;;;17.90;69.70;;;;;;5036484;28;20290;-84
2022/08/09 00:51:25;;;;;;;;;;;17.80;69.90;;;;;;5033965;28;19960;-84
2022/08/09 00:53:50;;;;;;;;;;;17.70;70.70;;;;;;5028805;28;20306;-84
2022/08/09 00:56:19;;;;;;;;;;;17.70;70.40;;;;;;5026641;28;19913;-85
2022/08/09 00:58:44;;;;;;;;;;;17.70;70.30;;;;;;5024554;28;20000;-84
2022/08/09 01:01:20;;;;;;;;;;;17.70;70.50;;;;;;5026941;28;19950;-84
2022/08/09 01:04:02;;;;;;;;;;;17.60;71.10;;;;;;5027520;28;20328;-84
2022/08/09 01:06:46;;;;;;;;;;;17.50;71.90;;;;;;5031064;28;19990;-84
2022/08/09 01:09:18;;;;;;;;;;;17.50;71.50;;;;;;5030076;28;19971;-85
2022/08/09 01:11:57;;;;;;;;;;;17.40;71.30;;;;;;5028939;28;19929;-84
2022/08/09 01:14:28;;;;;;;;;;;17.30;72.00;;;;;;5026515;28;20372;-84
2022/08/09 01:16:57;;;;;;;;;;;17.30;72.40;;;;;;5028163;28;19913;-85
2022/08/09 01:19:35;;;;;;;;;;;17.40;72.20;;;;;;5041023;28;19963;-83
2022/08/09 01:22:12;;;;;;;;;;;17.40;71.90;;;;;;5029847;28;19920;-84
2022/08/09 01:24:59;;;;;;;;;;;17.40;72.10;;;;;;5032635;28;19913;-84
2022/08/09 01:27:25;;;;;;;;;;;17.50;71.60;;;;;;5032766;28;20384;-85
2022/08/09 01:29:54;;;;;;;;;;;17.50;72.30;;;;;;5024755;28;20370;-84
2022/08/09 01:32:21;;;;;;;;;;;17.40;72.50;;;;;;5032496;28;19989;-84
2022/08/09 01:34:47;;;;;;;;;;;17.40;72.50;;;;;;5031374;28;19957;-85
2022/08/09 01:37:18;;;;;;;;;;;17.30;72.60;;;;;;5032420;28;20272;-84
2022/08/09 01:39:45;;;;;;;;;;;17.30;73.40;;;;;;5030322;28;19920;-83
2022/08/09 01:42:10;;;;;;;;;;;17.30;73.20;;;;;;5019543;28;19917;-84
2022/08/09 01:44:36;;;;;;;;;;;17.20;73.40;;;;;;5033277;28;19914;-84
2022/08/09 01:47:03;;;;;;;;;;;17.20;73.50;;;;;;5036208;28;19929;-83
2022/08/09 01:49:30;;;;;;;;;;;17.10;73.20;;;;;;5030296;28;20236;-84
2022/08/09 01:51:57;;;;;;;;;;;17.30;72.90;;;;;;5036376;28;19955;-84
2022/08/09 01:54:26;;;;;;;;;;;17.30;72.70;;;;;;5034669;28;20308;-84
2022/08/09 01:56:53;;;;;;;;;;;17.20;73.00;;;;;;5029216;28;20008;-84
2022/08/09 01:59:20;;;;;;;;;;;17.20;73.30;;;;;;5027397;28;20383;-84
2022/08/09 02:01:47;;;;;;;;;;;17.10;73.30;;;;;;5033558;28;19924;-84
2022/08/09 02:04:13;;;;;;;;;;;17.10;74.10;;;;;;5028076;28;19913;-83
2022/08/09 02:09:27;;;;;;;;;;;17.10;74.10;;;;;;5030543;28;20390;-84
2022/08/09 02:11:54;;;;;;;;;;;17.10;73.50;;;;;;5022606;28;20456;-83
2022/08/09 02:14:20;;;;;;;;;;;17.00;74.20;;;;;;5028784;28;20260;-83
2022/08/09 02:16:46;;;;;;;;;;;16.90;74.80;;;;;;5026185;28;19981;-84
2022/08/09 02:19:12;;;;;;;;;;;16.80;75.50;;;;;;5025436;28;19921;-84
2022/08/09 02:21:42;;;;;;;;;;;16.80;75.40;;;;;;5031327;28;19921;-84
2022/08/09 02:24:09;;;;;;;;;;;16.80;74.90;;;;;;5023984;28;19914;-84
2022/08/09 02:26:35;;;;;;;;;;;16.80;75.50;;;;;;5030938;28;19921;-84
2022/08/09 02:29:05;;;;;;;;;;;16.80;75.60;;;;;;5026163;28;19929;-84
2022/08/09 02:31:34;;;;;;;;;;;16.80;75.50;;;;;;5025420;28;19920;-84
2022/08/09 02:34:05;;;;;;;;;;;16.70;75.90;;;;;;5028904;28;19997;-84
2022/08/09 02:36:39;;;;;;;;;;;16.60;76.10;;;;;;5019163;28;20554;-84
2022/08/09 02:39:05;;;;;;;;;;;16.70;76.30;;;;;;5036184;28;20297;-83
2022/08/09 02:41:34;;;;;;;;;;;16.60;76.10;;;;;;5028548;28;20055;-84
2022/08/09 02:44:05;;;;;;;;;;;16.60;76.00;;;;;;5029052;28;19913;-84
2022/08/09 02:46:32;;;;;;;;;;;16.60;76.20;;;;;;5035190;28;19913;-84
2022/08/09 02:49:00;;;;;;;;;;;16.70;76.10;;;;;;5035941;28;19971;-84
2022/08/09 02:51:26;;;;;;;;;;;16.60;76.40;;;;;;5034405;28;19909;-84
2022/08/09 02:53:54;;;;;;;;;;;16.70;76.10;;;;;;5026509;28;19921;-84
2022/08/09 02:56:20;;;;;;;;;;;16.60;76.40;;;;;;5038522;28;19968;-83
2022/08/09 02:58:46;;;;;;;;;;;16.60;76.30;;;;;;5055193;28;19910;-82
2022/08/09 03:01:14;;;;;;;;;;;16.60;76.20;;;;;;5053161;28;19956;-82
2022/08/09 03:03:40;;;;;;;;;;;16.60;76.50;;;;;;5052228;28;19964;-84
2022/08/09 03:06:06;;;;;;;;;;;16.60;76.60;;;;;;5041786;28;19917;-84
2022/08/09 03:08:32;;;;;;;;;;;16.60;77.00;;;;;;5029972;28;19960;-83
2022/08/09 03:10:59;;;;;;;;;;;16.60;76.70;;;;;;5033947;28;19914;-83
2022/08/09 03:13:26;;;;;;;;;;;16.60;76.70;;;;;;5033700;28;19959;-84
2022/08/09 03:15:51;;;;;;;;;;;16.60;77.20;;;;;;5028020;28;19925;-83
2022/08/09 03:18:17;;;;;;;;;;;16.60;76.90;;;;;;5027650;28;20315;-83
2022/08/09 03:20:42;;;;;;;;;;;16.50;77.40;;;;;;5032846;28;19981;-84
2022/08/09 03:23:09;;;;;;;;;;;16.50;77.60;;;;;;5035369;28;19917;-84
2022/08/09 03:25:35;;;;;;;;;;;16.50;77.30;;;;;;5035937;28;19921;-84
2022/08/09 03:28:01;;;;;;;;;;;16.50;77.20;;;;;;5033156;28;20001;-84
2022/08/09 03:30:27;;;;;;;;;;;16.50;77.70;;;;;;5036535;28;19913;-84
2022/08/09 03:32:53;;;;;;;;;;;16.50;77.80;;;;;;5037055;28;19968;-84
2022/08/09 03:35:19;;;;;;;;;;;16.40;78.30;;;;;;5040051;28;19917;-84
2022/08/09 03:37:44;;;;;;;;;;;16.40;78.40;;;;;;5032108;28;19920;-84
2022/08/09 03:40:10;;;;;;;;;;;16.40;78.10;;;;;;5028785;28;19921;-84
2022/08/09 03:42:36;;;;;;;;;;;16.30;78.20;;;;;;5033869;28;20407;-84
2022/08/09 03:45:01;;;;;;;;;;;16.40;78.20;;;;;;5026144;28;20566;-84
2022/08/09 03:47:27;;;;;;;;;;;16.30;78.50;;;;;;5032402;28;19936;-84
2022/08/09 03:49:52;;;;;;;;;;;16.40;78.60;;;;;;5032355;28;19909;-83
2022/08/09 03:52:18;;;;;;;;;;;16.40;78.20;;;;;;5035201;28;19917;-84
2022/08/09 03:54:46;;;;;;;;;;;16.40;78.40;;;;;;5053375;28;19913;-83
2022/08/09 03:57:13;;;;;;;;;;;16.30;78.80;;;;;;5031978;28;20024;-82
2022/08/09 03:59:40;;;;;;;;;;;16.40;78.30;;;;;;5024582;28;20502;-84
2022/08/09 04:02:06;;;;;;;;;;;16.40;78.20;;;;;;5023591;28;19984;-82
2022/08/09 04:04:31;;;;;;;;;;;16.40;78.50;;;;;;5025744;28;20353;-82
2022/08/09 04:06:57;;;;;;;;;;;16.40;78.50;;;;;;5026896;28;19917;-83
2022/08/09 04:09:23;;;;;;;;;;;16.50;78.10;;;;;;5025584;28;19960;-83
2022/08/09 04:11:49;;;;;;;;;;;16.30;78.80;;;;;;5026720;28;19921;-83
2022/08/09 04:14:15;;;;;;;;;;;16.30;78.80;;;;;;5023919;28;19924;-83
2022/08/09 04:16:40;;;;;;;;;;;16.30;79.00;;;;;;5021782;28;19937;-83
2022/08/09 04:19:05;;;;;;;;;;;16.40;79.00;;;;;;5019742;28;19914;-83
2022/08/09 04:21:31;;;;;;;;;;;16.30;79.10;;;;;;5027109;28;19996;-83
2022/08/09 04:23:56;;;;;;;;;;;16.30;79.40;;;;;;5019406;28;19921;-84
2022/08/09 04:26:22;;;;;;;;;;;16.20;79.50;;;;;;5022586;28;19917;-85
2022/08/09 04:28:47;;;;;;;;;;;16.20;79.60;;;;;;5022390;28;19928;-83
2022/08/09 04:31:13;;;;;;;;;;;16.10;79.50;;;;;;5032942;28;20338;-84
2022/08/09 04:33:38;;;;;;;;;;;16.30;78.90;;;;;;5032224;28;20272;-83
2022/08/09 04:36:04;;;;;;;;;;;16.20;79.20;;;;;;5026665;28;19960;-83
2022/08/09 04:38:29;;;;;;;;;;;16.20;79.70;;;;;;5033252;28;19917;-84
2022/08/09 04:40:56;;;;;;;;;;;16.20;79.20;;;;;;5026240;28;19913;-83
2022/08/09 04:43:22;;;;;;;;;;;16.10;79.50;;;;;;5036666;28;19913;-84
2022/08/09 04:45:47;;;;;;;;;;;16.10;79.40;;;;;;5032262;28;19921;-84
2022/08/09 04:48:13;;;;;;;;;;;16.00;79.70;;;;;;5030884;28;19990;-85
2022/08/09 04:50:40;;;;;;;;;;;15.90;80.10;;;;;;5022884;28;20399;-83
2022/08/09 04:53:06;;;;;;;;;;;15.90;80.40;;;;;;5031965;28;19920;-83
2022/08/09 04:55:32;;;;;;;;;;;16.00;80.70;;;;;;5035643;28;20334;-83
2022/08/09 04:57:57;;;;;;;;;;;16.10;80.30;;;;;;5035849;28;19921;-85
2022/08/09 05:00:23;;;;;;;;;;;16.10;80.50;;;;;;5030755;28;19913;-83
2022/08/09 05:02:48;;;;;;;;;;;16.20;80.50;;;;;;5024053;28;19967;-82
2022/08/09 05:05:14;;;;;;;;;;;16.40;79.80;;;;;;5032746;28;19913;-83
2022/08/09 05:07:39;;;;;;;;;;;16.40;79.70;;;;;;5028885;28;19913;-83
2022/08/09 05:10:05;;;;;;;;;;;16.40;80.00;;;;;;5021896;28;19918;-82
2022/08/09 05:12:31;;;;;;;;;;;16.40;80.10;;;;;;5029578;28;19977;-82
2022/08/09 05:14:56;;;;;;;;;;;16.50;80.40;;;;;;5035490;28;19960;-83
2022/08/09 05:17:22;;;;;;;;;;;16.50;79.70;;;;;;5053492;28;19914;-83
2022/08/09 05:19:47;;;;;;;;;;;16.50;80.10;;;;;;5058540;28;19973;-82
2022/08/09 05:22:13;;;;;;;;;;;16.50;80.20;;;;;;5029938;28;19913;-83
2022/08/09 05:24:39;;;;;;;;;;;16.60;79.90;;;;;;5030851;28;19914;-82
2022/08/09 05:27:05;;;;;;;;;;;16.60;79.90;;;;;;5048292;28;19922;-83
2022/08/09 05:29:30;;;;;;;;;;;16.70;79.70;;;;;;5032323;28;19917;-83
2022/08/09 05:31:59;;;;;;;;;;;16.80;80.00;;;;;;5024282;28;19967;-83
2022/08/09 05:34:30;;;;;;;;;;;16.80;80.20;;;;;;5027865;28;19917;-83
2022/08/09 05:36:56;;;;;;;;;;;16.80;79.70;;;;;;5029003;28;19920;-83
2022/08/09 05:39:22;;;;;;;;;;;16.90;79.70;;;;;;5023827;28;20296;-84
2022/08/09 05:41:47;;;;;;;;;;;17.00;79.40;;;;;;5032178;28;19913;-83
2022/08/09 05:44:12;;;;;;;;;;;17.10;79.00;;;;;;5044637;28;20314;-83
2022/08/09 05:46:38;;;;;;;;;;;17.10;79.00;;;;;;5025347;28;19921;-82
2022/08/09 05:49:03;;;;;;;;;;;17.00;79.20;;;;;;5028481;28;19913;-83
2022/08/09 05:51:29;;;;;;;;;;;17.10;79.30;;;;;;5025429;28;19913;-82
2022/08/09 05:53:54;;;;;;;;;;;17.10;78.90;;;;;;5015342;28;19921;-83
2022/08/09 05:56:20;;;;;;;;;;;17.10;79.20;;;;;;5028287;28;19914;-83
2022/08/09 05:58:46;;;;;;;;;;;17.20;79.20;;;;;;5013858;28;19920;-83
2022/08/09 06:01:11;;;;;;;;;;;17.30;78.40;;;;;;5028069;28;19913;-83
2022/08/09 06:03:37;;;;;;;;;;;17.20;78.90;;;;;;5027005;28;20326;-82
2022/08/09 06:06:02;;;;;;;;;;;17.10;79.20;;;;;;5043143;28;19928;-81
2022/08/09 06:08:28;;;;;;;;;;;17.10;79.40;;;;;;5018335;28;20300;-82
2022/08/09 06:10:54;;;;;;;;;;;17.10;79.20;;;;;;5025669;28;20379;-83
2022/08/09 06:13:20;;;;;;;;;;;17.20;79.40;;;;;;5027038;28;19921;-83
2022/08/09 06:15:45;;;;;;;;;;;17.30;79.60;;;;;;5045861;28;19917;-83
2022/08/09 06:18:10;;;;;;;;;;;17.50;79.10;;;;;;5040161;28;19897;-81
2022/08/09 06:20:36;;;;;;;;;;;17.70;78.20;;;;;;5048174;28;19913;-81
2022/08/09 06:23:02;;;;;;;;;;;18.00;77.40;;;;;;5035605;28;19921;-83
2022/08/09 06:25:27;;;;;;;;;;;18.50;76.40;;;;;;5020859;28;19914;-83
2022/08/09 06:27:53;;;;;;;;;;;18.70;75.50;;;;;;5023528;28;19917;-83
2022/08/09 06:30:18;;;;;;;;;;;18.70;75.20;;;;;;5030574;28;19913;-83
2022/08/09 06:32:44;;;;;;;;;;;18.60;75.60;;;;;;5028809;28;19996;-83
2022/08/09 06:35:10;;;;;;;;;;;18.50;75.60;;;;;;5029173;28;20020;-83
2022/08/09 06:37:36;;;;;;;;;;;18.40;75.90;;;;;;5029510;28;20004;-83
2022/08/09 06:40:01;;;;;;;;;;;18.30;76.10;;;;;;5025796;28;19920;-83
2022/08/09 06:42:29;;;;;;;;;;;18.50;74.70;;;;;;5039417;28;19932;-83
2022/08/09 06:44:55;;;;;;;;;;;18.20;75.90;;;;;;5036938;28;19989;-83
2022/08/09 06:47:21;;;;;;;;;;;18.10;76.20;;;;;;5043002;28;19913;-83
2022/08/09 06:49:47;;;;;;;;;;;18.20;76.70;;;;;;5025756;28;19978;-83
2022/08/09 06:52:13;;;;;;;;;;;18.10;76.30;;;;;;5032333;28;19952;-84
2022/08/09 06:54:38;;;;;;;;;;;18.20;76.30;;;;;;5032345;28;20423;-84
2022/08/09 06:57:04;;;;;;;;;;;18.20;76.90;;;;;;5020032;28;19918;-84
2022/08/09 06:59:29;;;;;;;;;;;18.30;76.60;;;;;;5023769;28;19937;-84
2022/08/09 07:01:55;;;;;;;;;;;18.40;76.40;;;;;;5021454;28;19956;-83
2022/08/09 07:04:20;;;;;;;;;;;18.40;75.40;;;;;;5029861;28;19924;-83
2022/08/09 07:06:46;;;;;;;;;;;18.50;74.90;;;;;;5022345;28;19917;-83
2022/08/09 07:09:11;;;;;;;;;;;18.50;74.70;;;;;;5024617;28;19917;-83
2022/08/09 07:11:37;;;;;;;;;;;18.40;75.60;;;;;;5028375;28;19956;-84
2022/08/09 07:14:03;;;;;;;;;;;18.40;75.80;;;;;;5012671;28;19929;-84
2022/08/09 07:16:28;;;;;;;;;;;18.40;75.40;;;;;;5019951;28;19913;-84
2022/08/09 07:18:54;;;;;;;;;;;18.50;75.60;;;;;;5027152;28;19918;-84
2022/08/09 07:21:19;;;;;;;;;;;18.70;74.70;;;;;;5030611;28;19920;-84
2022/08/09 07:23:45;;;;;;;;;;;18.70;74.20;;;;;;5034420;28;19996;-83
2022/08/09 07:26:10;;;;;;;;;;;18.80;74.10;;;;;;5034780;28;19917;-84
2022/08/09 07:28:35;;;;;;;;;;;18.80;73.30;;;;;;5029251;28;20011;-85
2022/08/09 07:31:03;;;;;;;;;;;18.70;74.00;;;;;;5030300;28;19913;-84
2022/08/09 07:33:29;;;;;;;;;;;18.90;73.80;;;;;;5032350;28;19953;-84
2022/08/09 07:35:54;;;;;;;;;;;18.90;73.40;;;;;;5048920;28;19913;-88
2022/08/09 07:38:20;;;;;;;;;;;18.90;73.20;;;;;;5046424;28;19935;-85
2022/08/09 07:40:46;;;;;;;;;;;19.00;73.30;;;;;;5063970;28;19920;-85
2022/08/09 07:43:11;;;;;;;;;;;19.00;73.50;;;;;;5044779;28;19939;-84
2022/08/09 07:45:37;;;;;;;;;;;19.00;73.10;;;;;;5033659;28;19952;-86
2022/08/09 07:48:02;;;;;;;;;;;19.00;73.10;;;;;;5019532;28;19913;-85
2022/08/09 07:50:28;;;;;;;;;;;19.00;73.00;;;;;;5030473;28;19925;-84
2022/08/09 07:52:54;;;;;;;;;;;19.30;71.30;;;;;;5032823;28;19921;-84
2022/08/09 07:55:19;;;;;;;;;;;19.30;71.60;;;;;;5016549;28;19914;-83
2022/08/09 07:57:47;;;;;;;;;;;19.40;71.80;;;;;;5025873;28;19925;-85
2022/08/09 08:00:16;;;;;;;;;;;19.40;71.80;;;;;;5027433;28;19917;-84
2022/08/09 08:02:42;;;;;;;;;;;19.60;71.30;;;;;;5031184;28;19921;-84
2022/08/09 08:05:08;;;;;;;;;;;19.70;70.40;;;;;;5029947;28;19928;-84
2022/08/09 08:07:33;;;;;;;;;;;19.80;70.30;;;;;;5022967;28;20001;-85
2022/08/09 08:09:59;;;;;;;;;;;19.90;70.00;;;;;;5022605;28;19917;-84
2022/08/09 08:12:24;;;;;;;;;;;19.90;70.60;;;;;;5028464;28;19924;-84
2022/08/09 08:14:50;;;;;;;;;;;20.10;69.60;;;;;;5026815;28;19924;-83
2022/08/09 08:17:16;;;;;;;;;;;20.10;70.60;;;;;;5032552;28;19913;-82
2022/08/09 08:19:41;;;;;;;;;;;20.10;70.40;;;;;;5027890;28;19913;-83
2022/08/09 08:22:06;;;;;;;;;;;20.10;69.10;;;;;;5036969;28;19917;-84
2022/08/09 08:24:32;;;;;;;;;;;20.10;69.20;;;;;;5026759;28;19913;-84
2022/08/09 08:26:57;;;;;;;;;;;20.30;68.00;;;;;;5023483;28;20598;-83
2022/08/09 08:29:23;;;;;;;;;;;20.50;67.80;;;;;;5015068;28;20284;-85
2022/08/09 08:31:49;;;;;;;;;;;20.50;67.60;;;;;;5025340;28;19913;-85
2022/08/09 08:34:14;;;;;;;;;;;20.40;67.60;;;;;;5028979;28;19924;-82
2022/08/09 08:36:40;;;;;;;;;;;20.50;67.40;;;;;;5027180;28;19914;-83
2022/08/09 08:39:05;;;;;;;;;;;20.50;66.80;;;;;;5026770;28;19913;-82
2022/08/09 08:41:31;;;;;;;;;;;20.70;66.10;;;;;;5029785;28;19932;-83
2022/08/09 08:43:59;;;;;;;;;;;20.70;66.60;;;;;;5027426;28;19917;-84
2022/08/09 08:46:29;;;;;;;;;;;20.60;65.80;;;;;;5029726;28;19913;-83
2022/08/09 08:48:58;;;;;;;;;;;20.70;65.20;;;;;;5030084;28;20355;-84
2022/08/09 08:51:23;;;;;;;;;;;20.70;64.90;;;;;;5018102;28;20448;-84
2022/08/09 08:53:53;;;;;;;;;;;20.70;65.50;;;;;;5033644;28;20008;-83
2022/08/09 08:56:19;;;;;;;;;;;20.80;64.80;;;;;;5029692;28;20001;-82
2022/08/09 08:58:45;;;;;;;;;;;21.10;64.20;;;;;;5028674;28;19917;-82
2022/08/09 09:01:11;;;;;;;;;;;21.00;65.00;;;;;;5029697;28;19924;-84
2022/08/09 09:03:37;;;;;;;;;;;21.00;64.60;;;;;;5029459;28;20323;-80
2022/08/09 09:06:04;;;;;;;;;;;21.10;64.60;;;;;;5028173;28;20017;-84
2022/08/09 09:08:32;;;;;;;;;;;21.10;63.90;;;;;;5023347;28;20366;-82
2022/08/09 09:11:00;;;;;;;;;;;21.10;65.30;;;;;;5027515;28;19945;-81
2022/08/09 09:13:26;;;;;;;;;;;21.50;63.50;;;;;;5028628;28;19913;-81
2022/08/09 09:15:51;;;;;;;;;;;21.50;62.70;;;;;;5025046;28;20420;-81
2022/08/09 09:18:17;;;;;;;;;;;21.60;62.20;;;;;;5024253;28;19928;-81
2022/08/09 09:20:43;;;;;;;;;;;21.50;62.70;;;;;;5027495;28;19920;-81
2022/08/09 09:23:09;;;;;;;;;;;21.50;62.90;;;;;;5021390;28;20015;-82
2022/08/09 09:25:36;;;;;;;;;;;21.50;62.40;;;;;;5022868;28;19961;-82
2022/08/09 09:28:04;;;;;;;;;;;21.50;63.90;;;;;;5023156;28;20004;-84
2022/08/09 09:30:30;;;;;;;;;;;21.60;63.50;;;;;;5020668;28;19920;-80
2022/08/09 09:33:03;;;;;;;;;;;21.80;61.30;;;;;;5026352;28;19917;-82
2022/08/09 09:35:28;;;;;;;;;;;22.00;60.70;;;;;;5027668;28;19927;-82
2022/08/09 09:37:54;;;;;;;;;;;22.10;60.30;;;;;;5036350;28;19941;-81
2022/08/09 09:40:19;;;;;;;;;;;22.00;60.70;;;;;;5040871;28;19949;-82
2022/08/09 09:42:57;;;;;;;;;;;22.10;60.90;;;;;;5040291;28;19914;-82
2022/08/09 09:45:23;;;;;;;;;;;22.20;59.50;;;;;;5029762;28;19917;-84
2022/08/09 09:47:48;;;;;;;;;;;22.20;59.60;;;;;;5030084;28;19969;-84
2022/08/09 09:50:21;;;;;;;;;;;22.30;58.80;;;;;;5029167;28;19949;-83
2022/08/09 09:52:50;;;;;;;;;;;22.30;58.40;;;;;;5036576;28;19897;-81
2022/08/09 09:55:15;;;;;;;;;;;22.40;58.30;;;;;;5066803;28;19939;-81
2022/08/09 09:57:55;;;;;;;;;;;22.40;59.30;;;;;;5048509;28;19941;-82
2022/08/09 10:00:21;;;;;;;;;;;22.60;57.30;;;;;;5046041;28;20300;-82
2022/08/09 10:02:47;;;;;;;;;;;22.80;56.00;;;;;;5044088;28;19948;-82
2022/08/09 10:05:12;;;;;;;;;;;22.70;57.30;;;;;;5034359;28;19913;-84
2022/08/09 10:07:38;;;;;;;;;;;22.60;57.20;;;;;;5031230;28;19930;-82
2022/08/09 10:10:04;;;;;;;;;;;22.80;55.80;;;;;;5033446;28;19920;-83
2022/08/09 10:12:31;;;;;;;;;;;22.90;56.20;;;;;;5030010;28;19937;-82
2022/08/09 10:15:06;;;;;;;;;;;22.90;54.60;;;;;;5024081;28;20004;-82
2022/08/09 10:17:33;;;;;;;;;;;22.80;55.10;;;;;;5024004;28;19920;-84
2022/08/09 10:19:59;;;;;;;;;;;22.80;55.90;;;;;;5026485;28;19924;-83
2022/08/09 10:22:31;;;;;;;;;;;22.90;56.30;;;;;;5030092;28;20399;-84
2022/08/09 10:24:57;;;;;;;;;;;23.00;55.70;;;;;;5053558;28;19914;-83
2022/08/09 10:27:22;;;;;;;;;;;23.10;54.60;;;;;;5031650;28;19928;-84
2022/08/09 10:29:48;;;;;;;;;;;23.10;55.00;;;;;;5032704;28;19996;-83
2022/08/09 10:32:14;;;;;;;;;;;23.30;54.30;;;;;;5028632;28;19913;-84
2022/08/09 10:34:41;;;;;;;;;;;23.30;53.90;;;;;;5032584;28;19921;-84
2022/08/09 10:37:06;;;;;;;;;;;23.30;54.00;;;;;;5034795;28;20613;-83
2022/08/09 10:39:32;;;;;;;;;;;23.50;52.70;;;;;;5032813;28;19914;-84
2022/08/09 10:41:58;;;;;;;;;;;23.60;52.00;;;;;;5033591;28;19914;-83
2022/08/09 10:44:24;;;;;;;;;;;23.50;52.40;;;;;;5027379;28;19916;-83
2022/08/09 10:47:09;;;;;;;;;;;23.40;52.50;;;;;;5024655;28;19920;-83
2022/08/09 10:49:44;;;;;;;;;;;23.30;53.70;;;;;;5023576;28;19928;-83
2022/08/09 10:52:28;;;;;;;;;;;23.60;52.00;;;;;;5023819;28;19921;-83
2022/08/09 10:54:54;;;;;;;;;;;23.60;51.90;;;;;;5028866;28;19968;-83
2022/08/09 10:57:22;;;;;;;;;;;23.50;52.70;;;;;;5027475;28;19957;-84
2022/08/09 10:59:47;;;;;;;;;;;23.50;53.00;;;;;;5029234;28;19978;-84
2022/08/09 11:02:36;;;;;;;;;;;23.60;51.60;;;;;;5046846;28;21632;-84
2022/08/09 11:05:12;;;;;;;;;;;23.70;51.70;;;;;;5020832;28;20639;-84
2022/08/09 11:07:38;;;;;;;;;;;23.70;50.40;;;;;;5026713;28;19960;-84
2022/08/09 11:10:03;;;;;;;;;;;23.70;50.90;;;;;;5024086;28;19909;-85
2022/08/09 11:12:29;;;;;;;;;;;23.70;50.60;;;;;;5026395;28;20004;-86
2022/08/09 11:15:15;;;;;;;;;;;23.60;51.10;;;;;;5024406;28;19917;-85
2022/08/09 11:17:40;;;;;;;;;;;23.70;52.10;;;;;;5014521;28;19914;-85
2022/08/09 11:20:08;;;;;;;;;;;24.00;49.90;;;;;;5023270;28;20335;-84
2022/08/09 11:22:40;;;;;;;;;;;24.00;48.80;;;;;;5027570;28;19913;-83
2022/08/09 11:25:10;;;;;;;;;;;24.10;49.30;;;;;;5026717;28;19951;-83
2022/08/09 11:27:42;;;;;;;;;;;24.40;48.20;;;;;;5025117;28;19928;-83
2022/08/09 11:30:09;;;;;;;;;;;24.20;48.80;;;;;;5029652;28;19916;-83
2022/08/09 11:32:44;;;;;;;;;;;24.10;49.90;;;;;;5026005;28;20107;-83
2022/08/09 11:35:21;;;;;;;;;;;24.30;48.90;;;;;;5033536;28;19921;-84
2022/08/09 11:37:48;;;;;;;;;;;24.50;48.40;;;;;;5028829;28;19963;-83
2022/08/09 11:40:14;;;;;;;;;;;24.30;47.90;;;;;;5032097;28;19913;-84
2022/08/09 11:42:51;;;;;;;;;;;24.10;48.20;;;;;;5021704;28;19913;-83
2022/08/09 11:45:19;;;;;;;;;;;24.30;49.90;;;;;;5030102;28;20336;-85
2022/08/09 11:47:46;;;;;;;;;;;24.50;47.90;;;;;;5031713;28;19921;-84
2022/08/09 11:50:11;;;;;;;;;;;24.50;47.30;;;;;;5015908;28;20388;-84
2022/08/09 11:52:55;;;;;;;;;;;24.60;48.20;;;;;;5032302;28;19990;-84
2022/08/09 11:55:32;;;;;;;;;;;24.60;47.90;;;;;;5022195;28;20073;-83
2022/08/09 11:58:02;;;;;;;;;;;24.70;46.40;;;;;;5032137;28;19920;-84
2022/08/09 12:00:29;;;;;;;;;;;24.70;46.60;;;;;;5027461;28;19928;-83
2022/08/09 12:02:56;;;;;;;;;;;24.60;46.80;;;;;;5021716;28;19944;-82
2022/08/09 12:05:29;;;;;;;;;;;24.60;46.40;;;;;;5022088;28;19917;-82
2022/08/09 12:07:54;;;;;;;;;;;24.50;48.10;;;;;;5027440;28;19921;-84
2022/08/09 12:10:22;;;;;;;;;;;24.50;48.10;;;;;;5029760;28;19913;-84
2022/08/09 12:12:48;;;;;;;;;;;24.70;46.40;;;;;;5033222;28;20032;-83
2022/08/09 12:15:21;;;;;;;;;;;24.80;45.50;;;;;;5041609;28;19924;-83
2022/08/09 12:17:47;;;;;;;;;;;24.90;46.00;;;;;;5062001;28;19947;-83
2022/08/09 12:20:23;;;;;;;;;;;24.80;45.70;;;;;;5050042;28;19909;-85
2022/08/09 12:22:55;;;;;;;;;;;25.00;45.60;;;;;;5058144;28;20166;-83
2022/08/09 12:25:21;;;;;;;;;;;25.10;46.70;;;;;;5039719;28;20000;-83
2022/08/09 12:27:46;;;;;;;;;;;25.00;45.70;;;;;;5033645;28;20075;-82
2022/08/09 12:30:12;;;;;;;;;;;25.00;45.40;;;;;;4998249;22;19948;-88
2022/08/09 12:32:41;;;;;;;;;;;25.10;45.30;;;;;;4995971;28;19984;-89
2022/08/09 12:35:09;;;;;;;;;;;25.10;45.70;;;;;;5016956;28;19921;-88
2022/08/09 12:37:36;;;;;;;;;;;25.10;45.50;;;;;;4997602;28;19926;-89
2022/08/09 12:40:10;;;;;;;;;;;25.20;45.70;;;;;;5013030;28;19920;-88
2022/08/09 12:42:41;;;;;;;;;;;25.10;46.00;;;;;;5009923;28;19918;-87
2022/08/09 12:45:06;;;;;;;;;;;25.10;46.40;;;;;;5005052;28;19917;-86
2022/08/09 12:47:47;;;;;;;;;;;25.00;46.30;;;;;;5005867;28;19996;-92
2022/08/09 12:50:18;;;;;;;;;;;25.00;45.60;;;;;;5008669;28;19913;-89
2022/08/09 12:52:48;;;;;;;;;;;24.90;45.60;;;;;;4991855;28;19913;-90
2022/08/09 12:55:36;;;;;;;;;;;25.00;46.00;;;;;;4991637;28;19924;-89
2022/08/09 12:58:29;;;;;;;;;;;25.10;46.80;;;;;;5000285;28;19971;-89
2022/08/09 13:10:53;;;;;;;;;;;25.30;45.00;;;;;;4941753;28;19921;-90
2022/08/09 13:16:55;;;;;;;;;;;25.30;45.70;;;;;;5008779;28;19914;-89
2022/08/09 13:19:25;;;;;;;;;;;25.50;45.30;;;;;;4998747;28;19913;-86
2022/08/09 13:22:13;;;;;;;;;;;25.50;44.50;;;;;;5004126;28;19914;-88
2022/08/09 13:27:44;;;;;;;;;;;25.60;44.00;;;;;;4999501;28;19913;-86
2022/08/09 13:30:21;;;;;;;;;;;25.80;43.00;;;;;;4997329;28;19920;-87
2022/08/09 13:32:47;;;;;;;;;;;25.70;43.50;;;;;;4986150;28;19921;-86
2022/08/09 13:35:17;;;;;;;;;;;25.70;43.40;;;;;;5004983;28;19917;-86
2022/08/09 13:37:55;;;;;;;;;;;25.60;44.40;;;;;;4987625;28;20012;-86
2022/08/09 13:43:35;;;;;;;;;;;26.10;43.60;;;;;;5008464;28;20040;-88
2022/08/09 13:46:28;;;;;;;;;;;26.00;43.70;;;;;;5009682;28;19924;-89
2022/08/09 13:52:06;;;;;;;;;;;26.00;44.10;;;;;;5000637;28;20006;-88
2022/08/09 13:54:44;;;;;;;;;;;;;;;;;;;;;
2022/08/09 13:57:15;;;;;;;;;;;25.80;44.50;;;;;;5014625;28;19948;-87
2022/08/09 14:00:09;;;;;;;;;;;25.80;45.40;;;;;;5010655;28;20392;-86
2022/08/09 14:02:38;;;;;;;;;;;25.90;44.30;;;;;;4983880;28;20274;-87
2022/08/09 14:08:23;;;;;;;;;;;25.90;43.10;;;;;;5009293;28;19940;-87
2022/08/09 14:10:49;;;;;;;;;;;25.80;43.10;;;;;;5007843;28;19913;-79
2022/08/09 14:13:14;;;;;;;;;;;26.00;42.20;;;;;;5014883;28;19914;-87
2022/08/09 14:15:52;;;;;;;;;;;26.00;43.00;;;;;;5008380;28;19914;-85
2022/08/09 14:18:18;;;;;;;;;;;25.90;43.80;;;;;;4989143;28;19917;-85
2022/08/09 14:20:43;;;;;;;;;;;26.00;42.60;;;;;;4995610;28;19918;-85
2022/08/09 14:23:31;;;;;;;;;;;25.90;43.80;;;;;;4989386;28;19920;-87
2022/08/09 14:26:37;;;;;;;;;;;25.90;43.30;;;;;;5008931;28;19921;-87
2022/08/09 14:32:38;;;;;;;;;;;26.00;43.50;;;;;;4982702;28;20361;-90
2022/08/09 14:35:15;;;;;;;;;;;26.10;42.90;;;;;;4992846;28;19968;-89
2022/08/09 14:37:40;;;;;;;;;;;26.10;43.10;;;;;;4994069;28;19936;-88
2022/08/09 14:40:06;;;;;;;;;;;26.40;41.80;;;;;;5013348;28;20443;-88
2022/08/09 14:42:37;;;;;;;;;;;26.30;41.90;;;;;;5007611;28;19917;-87
2022/08/09 14:48:20;;;;;;;;;;;26.30;41.90;;;;;;4984512;28;20319;-83
2022/08/09 14:51:11;;;;;;;;;;;26.40;41.80;;;;;;4999733;28;19921;-87
2022/08/09 14:53:37;;;;;;;;;;;26.30;41.40;;;;;;4997636;28;19914;-85
2022/08/09 14:56:06;;;;;;;;;;;26.00;42.50;;;;;;5019479;28;19924;-85
2022/08/09 14:58:32;;;;;;;;;;;26.10;43.10;;;;;;5015762;28;20011;-84
2022/08/09 15:00:58;;;;;;;;;;;26.30;41.80;;;;;;5009732;28;20451;-84